Map

Track Data

SID SEASON NUMBER BASIN SUBBASIN NAME ISO_TIME NATURE LAT LON WMO_WIND WMO_PRES WMO_AGENCY TRACK_TYPE DIST2LAND LANDFALL IFLAG USA_AGENCY USA_ATCF_ID USA_LAT USA_LON USA_RECORD USA_STATUS USA_WIND USA_PRES USA_SSHS USA_R34_NE USA_R34_SE USA_R34_SW USA_R34_NW USA_R50_NE USA_R50_SE USA_R50_SW USA_R50_NW USA_R64_NE USA_R64_SE USA_R64_SW USA_R64_NW USA_POCI USA_ROCI USA_RMW USA_EYE TOKYO_LAT TOKYO_LON TOKYO_GRADE TOKYO_WIND TOKYO_PRES TOKYO_R50_DIR TOKYO_R50_LONG TOKYO_R50_SHORT TOKYO_R30_DIR TOKYO_R30_LONG TOKYO_R30_SHORT TOKYO_LAND CMA_LAT CMA_LON CMA_CAT CMA_WIND CMA_PRES HKO_LAT HKO_LON HKO_CAT HKO_WIND HKO_PRES NEWDELHI_LAT NEWDELHI_LON NEWDELHI_GRADE NEWDELHI_WIND NEWDELHI_PRES NEWDELHI_CI NEWDELHI_DP NEWDELHI_POCI REUNION_LAT REUNION_LON REUNION_TYPE REUNION_WIND REUNION_PRES REUNION_TNUM REUNION_CI REUNION_RMW REUNION_R34_NE REUNION_R34_SE REUNION_R34_SW REUNION_R34_NW REUNION_R50_NE REUNION_R50_SE REUNION_R50_SW REUNION_R50_NW REUNION_R64_NE REUNION_R64_SE REUNION_R64_SW REUNION_R64_NW BOM_LAT BOM_LON BOM_TYPE BOM_WIND BOM_PRES BOM_TNUM BOM_CI BOM_RMW BOM_R34_NE BOM_R34_SE BOM_R34_SW BOM_R34_NW BOM_R50_NE BOM_R50_SE BOM_R50_SW BOM_R50_NW BOM_R64_NE BOM_R64_SE BOM_R64_SW BOM_R64_NW BOM_ROCI BOM_POCI BOM_EYE BOM_POS_METHOD BOM_PRES_METHOD NADI_LAT NADI_LON NADI_CAT NADI_WIND NADI_PRES WELLINGTON_LAT WELLINGTON_LON WELLINGTON_WIND WELLINGTON_PRES DS824_LAT DS824_LON DS824_STAGE DS824_WIND DS824_PRES TD9636_LAT TD9636_LON TD9636_STAGE TD9636_WIND TD9636_PRES TD9635_LAT TD9635_LON TD9635_WIND TD9635_PRES TD9635_ROCI NEUMANN_LAT NEUMANN_LON NEUMANN_CLASS NEUMANN_WIND NEUMANN_PRES MLC_LAT MLC_LON MLC_CLASS MLC_WIND MLC_PRES USA_GUST BOM_GUST BOM_GUST_PER REUNION_GUST REUNION_GUST_PER USA_SEAHGT USA_SEARAD_NE USA_SEARAD_SE USA_SEARAD_SW USA_SEARAD_NW STORM_SPEED STORM_DIR
1939009S16119 1939 2 SI WA NOT_NAMED 1939-01-08 23:00:00 NR -15.8000 119.100 main 370 365 __________O___ -1 -15.8000 119.100 7 3 161
1939009S16119 1939 2 SI WA NOT_NAMED 1939-01-09 00:00:00 NR -15.8528 119.111 main 365 365 __________P___ -1 -15.8528 119.111 7 12 334
1939009S16119 1939 2 SI WA NOT_NAMED 1939-01-09 01:00:00 NR -15.4291 118.916 bom main 409 409 ______O___P___ -1 -14.0000 118.300 -15.9054 119.121 7 10 330
1939009S16119 1939 2 SI WA NOT_NAMED 1939-01-09 03:00:00 NR -15.4129 118.847 main 419 414 ______P___P___ -1 -14.2189 118.258 -16.0099 119.141 7 2 255
1939009S16119 1939 2 SI WA NOT_NAMED 1939-01-09 06:00:00 NR -15.4713 118.751 main 414 414 ______P___P___ -1 -14.5493 118.195 -16.1628 119.169 7 3 224
1939009S16119 1939 2 SI WA NOT_NAMED 1939-01-09 09:00:00 NR -15.5968 118.662 main 419 413 ______P___P___ -1 -14.8850 118.134 -16.3085 119.190 7 4 199
1939009S16119 1939 2 SI WA NOT_NAMED 1939-01-09 11:00:00 NR -15.7567 118.648 main 418 418 ______P___O___ -1 -15.1134 118.096 -16.4000 119.200 7 5 185
1939009S16119 1939 2 SI WA NOT_NAMED 1939-01-09 12:00:00 NR -15.8366 118.640 main 418 406 ______P___P___ -1 -15.2293 118.077 -16.4438 119.203 7 5 185
1939009S16119 1939 2 SI WA NOT_NAMED 1939-01-09 15:00:00 NR -16.0792 118.614 main 406 399 ______P___P___ -1 -15.5855 118.024 -16.5728 119.204 7 5 187
1939009S16119 1939 2 SI WA NOT_NAMED 1939-01-09 18:00:00 NR -16.3334 118.582 main 399 391 ______P___P___ -1 -15.9567 117.978 -16.7101 119.187 7 5 187
1939009S16119 1939 2 SI WA NOT_NAMED 1939-01-09 21:00:00 NR -16.6089 118.542 main 396 374 ______P___P___ -1 -16.3463 117.938 -16.8714 119.145 7 6 188
1939009S16119 1939 2 SI WA NOT_NAMED 1939-01-09 23:00:00 NR -16.8089 118.509 main 374 363 ______P___O___ -1 -16.6179 117.917 -17.0000 119.100 7 6 190
1939009S16119 1939 2 SI WA NOT_NAMED 1939-01-10 00:00:00 NR -16.9181 118.490 main 363 352 ______P___P___ -1 -16.7575 117.908 -17.0786 119.072 7 7 192
1939009S16119 1939 2 SI WA NOT_NAMED 1939-01-10 01:00:00 NR -17.0313 118.470 bom main 352 332 ______O___P___ -1 -16.9000 117.900 -17.1627 119.040 7 7 188
1939009S16119 1939 2 SI WA NOT_NAMED 1939-01-10 03:00:00 NR -17.2682 118.426 main 321 289 ______P___P___ -1 -17.1929 117.888 -17.3435 118.965 7 7 191
1939009S16119 1939 2 SI WA NOT_NAMED 1939-01-10 06:00:00 NR -17.6387 118.356 main 289 249 ______P___P___ -1 -17.6449 117.877 -17.6325 118.835 7 8 191
1939009S16119 1939 2 SI WA NOT_NAMED 1939-01-10 09:00:00 NR -18.0102 118.285 main 249 228 ______P___P___ -1 -18.0998 117.876 -17.9207 118.694 7 7 190
1939009S16119 1939 2 SI WA NOT_NAMED 1939-01-10 11:00:00 NR -18.2489 118.240 main 232 222 ______P___O___ -1 -18.3978 117.880 -18.1000 118.600 7 7 188
1939009S16119 1939 2 SI WA NOT_NAMED 1939-01-10 12:00:00 NR -18.3540 118.223 main 212 192 ______P___P___ -1 -18.5436 117.884 -18.1644 118.562 7 6 189
1939009S16119 1939 2 SI WA NOT_NAMED 1939-01-10 15:00:00 NR -18.6493 118.174 main 192 167 ______P___P___ -1 -18.9626 117.900 -18.3360 118.449 7 6 189
1939009S16119 1939 2 SI WA NOT_NAMED 1939-01-10 18:00:00 NR -18.9247 118.127 main 167 134 ______P___P___ -1 -19.3426 117.923 -18.5067 118.331 7 6 190
1939009S16119 1939 2 SI WA NOT_NAMED 1939-01-10 21:00:00 NR -19.1936 118.076 main 134 112 ______P___P___ -1 -19.6699 117.952 -18.7174 118.200 7 6 191
1939009S16119 1939 2 SI WA NOT_NAMED 1939-01-10 23:00:00 NR -19.3759 118.037 main 112 101 ______P___O___ -1 -19.8518 117.975 -18.9000 118.100 7 6 194
1939009S16119 1939 2 SI WA NOT_NAMED 1939-01-11 00:00:00 NR -19.4710 118.007 main 101 90 ______P___P___ -1 -19.9304 117.987 -19.0117 118.027 7 6 196
1939009S16119 1939 2 SI WA NOT_NAMED 1939-01-11 01:00:00 NR -19.5663 117.974 bom main 90 81 ______O___P___ -1 -20.0000 118.000 -19.1326 117.948 7 6 199
1939009S16119 1939 2 SI WA NOT_NAMED 1939-01-11 03:00:00 NR -19.7462 117.900 main 81 54 ______P___P___ -1 -20.0927 118.017 -19.3996 117.783 7 6 199
1939009S16119 1939 2 SI WA NOT_NAMED 1939-01-11 06:00:00 NR -20.0301 117.800 main 54 35 ______P___P___ -1 -20.2079 118.057 -19.8523 117.544 7 6 195
1939009S16119 1939 2 SI WA NOT_NAMED 1939-01-11 08:00:00 NR -20.2404 117.757 954 bom main 35 24 ______O___P___ -1 -20.3000 118.100 954 4 -20.1809 117.413 7 7 190
1939009S16119 1939 2 SI WA NOT_NAMED 1939-01-11 09:00:00 NR -20.3542 117.739 main 23 15 ______P___P___ -1 -20.3572 118.115 -20.3511 117.363 7 7 187
1939009S16119 1939 2 SI WA NOT_NAMED 1939-01-11 11:00:00 NR -20.5938 117.723 main 15 10 ______P___O___ -1 -20.4875 118.147 -20.7000 117.300 7 7 0
1939009S16119 1939 2 SI WA NOT_NAMED 1939-01-11 12:00:00 NR -20.7103 117.720 main 10 0 ______P___P___ -1 -20.5610 118.166 -20.8597 117.274 7 7 176
1939009S16119 1939 2 SI WA NOT_NAMED 1939-01-11 15:00:00 NR -21.0865 117.755 main 0 0 ______P___P___ -1 -20.8164 118.247 -21.3566 117.262 7 8 170
1939009S16119 1939 2 SI WA NOT_NAMED 1939-01-11 18:00:00 NR -21.5095 117.874 main 0 0 ______P___P___ -1 -21.1281 118.377 -21.8908 117.371 7 10 160
1939009S16119 1939 2 SI WA NOT_NAMED 1939-01-11 21:00:00 NR -21.9882 118.105 main 0 0 ______P___P___ -1 -21.5007 118.580 -22.4757 117.630 7 11 153
1939009S16119 1939 2 SI WA NOT_NAMED 1939-01-11 23:00:00 NR -22.3426 118.333 main 0 0 ______P___O___ -1 -21.7852 118.766 -22.9000 117.900 7 13 149
1939009S16119 1939 2 SI WA NOT_NAMED 1939-01-12 00:00:00 NR -22.5378 118.466 main 0 0 ______P___P___ -1 -21.9387 118.876 -23.1368 118.056 7 14 147
1939009S16119 1939 2 SI WA NOT_NAMED 1939-01-12 01:00:00 NR -22.7417 118.617 bom main 0 0 ______O___P___ -1 -22.1000 119.000 -23.3833 118.235 7 16 144
1939009S16119 1939 2 SI WA NOT_NAMED 1939-01-12 03:00:00 NR -23.1712 118.970 main 0 0 ______P___P___ -1 -22.4458 119.288 -23.8966 118.653 7 17 141
1939009S16119 1939 2 SI WA NOT_NAMED 1939-01-12 06:00:00 NR -23.8511 119.612 main 0 0 ______P___P___ -1 -23.0177 119.816 -24.6845 119.408 7 19 137
1939009S16119 1939 2 SI WA NOT_NAMED 1939-01-12 09:00:00 NR -24.5429 120.363 main 0 0 ______P___P___ -1 -23.6445 120.448 -25.4414 120.279 7 20 134
1939009S16119 1939 2 SI WA NOT_NAMED 1939-01-12 11:00:00 NR -24.9940 120.910 main 0 0 ______P___O___ -1 -24.0881 120.920 -25.9000 120.900 7 20 132
1939009S16119 1939 2 SI WA NOT_NAMED 1939-01-12 12:00:00 NR -25.2131 121.194 main 0 0 ______P___P___ -1 -24.3164 121.170 -26.1097 121.218 7 20 129
1939009S16119 1939 2 SI WA NOT_NAMED 1939-01-12 15:00:00 NR -25.8441 122.081 main 0 0 ______P___P___ -1 -25.0231 121.969 -26.6651 122.193 7 20 125
1939009S16119 1939 2 SI WA NOT_NAMED 1939-01-12 18:00:00 NR -26.3453 122.986 main 0 0 ______P___P___ -1 -25.7545 122.830 -27.1331 123.194 7 19 122
1939009S16119 1939 2 SI WA NOT_NAMED 1939-01-12 21:00:00 NR -26.8481 123.898 main 0 0 ______P___P___ -1 -26.5003 123.740 -27.5436 124.214 7 19 122
1939009S16119 1939 2 SI WA NOT_NAMED 1939-01-12 23:00:00 NR -27.2004 124.499 main 0 0 ______P___O___ -1 -27.0006 124.365 -27.8000 124.900 7 16 120
1939009S16119 1939 2 SI WA NOT_NAMED 1939-01-13 00:00:00 NR -27.2506 124.682 main 0 0 ______P_______ -1 -27.2506 124.682 7 16 124
1939009S16119 1939 2 SI WA NOT_NAMED 1939-01-13 01:00:00 NR -27.5000 125.000 bom main 0 ______O_______ -1 -27.5000 125.000 7 23 131

About IBTrACS Database

This database is a web-friendly format of International Best Track Archive for Climate Stewardship (IBTrACS), a global best track data archive curated by NOAA dating back to 1842.

Updated: 2021-12-01